sensor_id;sensor_type;location;lat;lon;timestamp;P1;durP1;ratioP1;P2;durP2;ratioP2
29906;SDS011;16776;50.958;10.994;2023-09-18T00:01:12;1.33;;;1.23;;
29906;SDS011;16776;50.958;10.994;2023-09-18T00:03:39;1.23;;;1.13;;
29906;SDS011;16776;50.958;10.994;2023-09-18T00:06:06;1.60;;;1.50;;
29906;SDS011;16776;50.958;10.994;2023-09-18T00:08:33;1.48;;;1.38;;
29906;SDS011;16776;50.958;10.994;2023-09-18T00:11:01;1.40;;;1.30;;
29906;SDS011;16776;50.958;10.994;2023-09-18T00:13:28;1.50;;;1.40;;
29906;SDS011;16776;50.958;10.994;2023-09-18T00:15:55;1.30;;;1.20;;
29906;SDS011;16776;50.958;10.994;2023-09-18T00:18:25;1.40;;;1.30;;
29906;SDS011;16776;50.958;10.994;2023-09-18T00:20:51;1.40;;;1.30;;
29906;SDS011;16776;50.958;10.994;2023-09-18T00:23:18;1.70;;;1.60;;
29906;SDS011;16776;50.958;10.994;2023-09-18T00:25:45;1.40;;;1.30;;
29906;SDS011;16776;50.958;10.994;2023-09-18T00:28:12;1.58;;;1.48;;
29906;SDS011;16776;50.958;10.994;2023-09-18T00:30:42;1.30;;;1.25;;
29906;SDS011;16776;50.958;10.994;2023-09-18T00:33:13;1.70;;;1.60;;
29906;SDS011;16776;50.958;10.994;2023-09-18T00:35:40;1.48;;;1.30;;
29906;SDS011;16776;50.958;10.994;2023-09-18T00:38:06;1.65;;;1.55;;
29906;SDS011;16776;50.958;10.994;2023-09-18T00:40:33;1.55;;;1.45;;
29906;SDS011;16776;50.958;10.994;2023-09-18T00:42:59;1.45;;;1.35;;
29906;SDS011;16776;50.958;10.994;2023-09-18T00:45:27;1.52;;;1.42;;
29906;SDS011;16776;50.958;10.994;2023-09-18T00:47:54;1.70;;;1.60;;
29906;SDS011;16776;50.958;10.994;2023-09-18T00:50:21;1.35;;;1.33;;
29906;SDS011;16776;50.958;10.994;2023-09-18T00:52:47;1.70;;;1.60;;
29906;SDS011;16776;50.958;10.994;2023-09-18T00:55:15;1.50;;;1.40;;
29906;SDS011;16776;50.958;10.994;2023-09-18T00:57:42;1.80;;;1.70;;
29906;SDS011;16776;50.958;10.994;2023-09-18T01:00:09;1.30;;;1.20;;
29906;SDS011;16776;50.958;10.994;2023-09-18T01:02:41;1.60;;;1.50;;
29906;SDS011;16776;50.958;10.994;2023-09-18T01:05:10;1.55;;;1.45;;
29906;SDS011;16776;50.958;10.994;2023-09-18T01:07:36;1.70;;;1.60;;
29906;SDS011;16776;50.958;10.994;2023-09-18T01:10:03;1.67;;;1.58;;
29906;SDS011;16776;50.958;10.994;2023-09-18T01:12:33;1.67;;;1.58;;
29906;SDS011;16776;50.958;10.994;2023-09-18T01:15:04;1.52;;;1.42;;
29906;SDS011;16776;50.958;10.994;2023-09-18T01:17:37;1.88;;;1.77;;
29906;SDS011;16776;50.958;10.994;2023-09-18T01:20:08;1.90;;;1.70;;
29906;SDS011;16776;50.958;10.994;2023-09-18T01:22:38;2.15;;;1.48;;
29906;SDS011;16776;50.958;10.994;2023-09-18T01:25:05;2.00;;;1.60;;
29906;SDS011;16776;50.958;10.994;2023-09-18T01:27:32;1.60;;;1.48;;
29906;SDS011;16776;50.958;10.994;2023-09-18T01:29:59;1.50;;;1.40;;
29906;SDS011;16776;50.958;10.994;2023-09-18T01:32:26;1.85;;;1.75;;
29906;SDS011;16776;50.958;10.994;2023-09-18T01:34:55;1.90;;;1.80;;
29906;SDS011;16776;50.958;10.994;2023-09-18T01:37:24;1.67;;;1.58;;
29906;SDS011;16776;50.958;10.994;2023-09-18T01:39:55;2.35;;;1.90;;
29906;SDS011;16776;50.958;10.994;2023-09-18T01:42:24;1.70;;;1.60;;
29906;SDS011;16776;50.958;10.994;2023-09-18T01:44:51;2.10;;;1.40;;
29906;SDS011;16776;50.958;10.994;2023-09-18T01:47:19;1.60;;;1.50;;
29906;SDS011;16776;50.958;10.994;2023-09-18T01:49:48;1.35;;;1.25;;
29906;SDS011;16776;50.958;10.994;2023-09-18T01:52:15;1.48;;;1.38;;
29906;SDS011;16776;50.958;10.994;2023-09-18T01:54:42;1.90;;;1.60;;
29906;SDS011;16776;50.958;10.994;2023-09-18T01:57:13;1.30;;;1.23;;
29906;SDS011;16776;50.958;10.994;2023-09-18T01:59:39;1.58;;;1.48;;
29906;SDS011;16776;50.958;10.994;2023-09-18T02:02:07;1.60;;;1.50;;
29906;SDS011;16776;50.958;10.994;2023-09-18T02:04:34;1.35;;;1.25;;
29906;SDS011;16776;50.958;10.994;2023-09-18T02:07:01;1.80;;;1.65;;
29906;SDS011;16776;50.958;10.994;2023-09-18T02:09:28;1.50;;;1.40;;
29906;SDS011;16776;50.958;10.994;2023-09-18T02:11:54;1.63;;;1.50;;
29906;SDS011;16776;50.958;10.994;2023-09-18T02:14:22;1.70;;;1.60;;
29906;SDS011;16776;50.958;10.994;2023-09-18T02:16:49;1.08;;;1.08;;
29906;SDS011;16776;50.958;10.994;2023-09-18T02:19:16;1.50;;;1.40;;
29906;SDS011;16776;50.958;10.994;2023-09-18T02:21:47;1.80;;;1.70;;
29906;SDS011;16776;50.958;10.994;2023-09-18T02:24:14;1.40;;;1.40;;
29906;SDS011;16776;50.958;10.994;2023-09-18T02:26:41;1.83;;;1.73;;
29906;SDS011;16776;50.958;10.994;2023-09-18T02:29:08;1.90;;;1.80;;
29906;SDS011;16776;50.958;10.994;2023-09-18T02:31:37;1.48;;;1.38;;
29906;SDS011;16776;50.958;10.994;2023-09-18T02:34:04;1.70;;;1.60;;
29906;SDS011;16776;50.958;10.994;2023-09-18T02:36:32;1.88;;;1.77;;
29906;SDS011;16776;50.958;10.994;2023-09-18T02:38:58;2.03;;;1.90;;
29906;SDS011;16776;50.958;10.994;2023-09-18T02:41:25;2.08;;;1.80;;
29906;SDS011;16776;50.958;10.994;2023-09-18T02:43:52;2.63;;;1.90;;
29906;SDS011;16776;50.958;10.994;2023-09-18T02:46:18;1.75;;;1.65;;
29906;SDS011;16776;50.958;10.994;2023-09-18T02:48:46;2.00;;;1.90;;
29906;SDS011;16776;50.958;10.994;2023-09-18T02:51:13;1.80;;;1.70;;
29906;SDS011;16776;50.958;10.994;2023-09-18T02:53:39;1.77;;;1.58;;
29906;SDS011;16776;50.958;10.994;2023-09-18T02:56:06;1.48;;;1.38;;
29906;SDS011;16776;50.958;10.994;2023-09-18T02:58:32;1.80;;;1.70;;
29906;SDS011;16776;50.958;10.994;2023-09-18T03:00:59;1.80;;;1.70;;
29906;SDS011;16776;50.958;10.994;2023-09-18T03:03:28;2.38;;;1.70;;
29906;SDS011;16776;50.958;10.994;2023-09-18T03:05:59;1.98;;;1.88;;
29906;SDS011;16776;50.958;10.994;2023-09-18T03:08:28;2.60;;;2.40;;
29906;SDS011;16776;50.958;10.994;2023-09-18T03:10:54;2.00;;;1.90;;
29906;SDS011;16776;50.958;10.994;2023-09-18T03:13:22;2.35;;;2.17;;
29906;SDS011;16776;50.958;10.994;2023-09-18T03:15:49;2.30;;;2.10;;
29906;SDS011;16776;50.958;10.994;2023-09-18T03:18:16;3.22;;;2.40;;
29906;SDS011;16776;50.958;10.994;2023-09-18T03:20:42;2.50;;;2.30;;
29906;SDS011;16776;50.958;10.994;2023-09-18T03:23:10;1.98;;;1.88;;
29906;SDS011;16776;50.958;10.994;2023-09-18T03:25:37;1.90;;;1.80;;
29906;SDS011;16776;50.958;10.994;2023-09-18T03:28:04;2.17;;;2.00;;
29906;SDS011;16776;50.958;10.994;2023-09-18T03:30:30;1.92;;;1.83;;
29906;SDS011;16776;50.958;10.994;2023-09-18T03:32:57;1.52;;;1.42;;
29906;SDS011;16776;50.958;10.994;2023-09-18T03:35:24;1.67;;;1.58;;
29906;SDS011;16776;50.958;10.994;2023-09-18T03:37:51;1.80;;;1.70;;
29906;SDS011;16776;50.958;10.994;2023-09-18T03:40:21;2.35;;;2.10;;
29906;SDS011;16776;50.958;10.994;2023-09-18T03:42:48;1.85;;;1.73;;
29906;SDS011;16776;50.958;10.994;2023-09-18T03:45:15;1.90;;;1.80;;
29906;SDS011;16776;50.958;10.994;2023-09-18T03:47:43;1.98;;;1.88;;
29906;SDS011;16776;50.958;10.994;2023-09-18T03:50:10;2.13;;;1.92;;
29906;SDS011;16776;50.958;10.994;2023-09-18T03:52:38;1.88;;;1.77;;
29906;SDS011;16776;50.958;10.994;2023-09-18T03:55:06;1.92;;;1.55;;
29906;SDS011;16776;50.958;10.994;2023-09-18T03:57:35;1.30;;;1.23;;
29906;SDS011;16776;50.958;10.994;2023-09-18T04:00:03;1.70;;;1.60;;
29906;SDS011;16776;50.958;10.994;2023-09-18T04:02:32;1.25;;;1.23;;
29906;SDS011;16776;50.958;10.994;2023-09-18T04:04:59;1.20;;;1.20;;
29906;SDS011;16776;50.958;10.994;2023-09-18T04:07:25;1.88;;;1.77;;
29906;SDS011;16776;50.958;10.994;2023-09-18T04:09:52;1.75;;;1.65;;
29906;SDS011;16776;50.958;10.994;2023-09-18T04:12:18;1.33;;;1.25;;
29906;SDS011;16776;50.958;10.994;2023-09-18T04:14:46;1.70;;;1.60;;
29906;SDS011;16776;50.958;10.994;2023-09-18T04:17:13;1.63;;;1.52;;
29906;SDS011;16776;50.958;10.994;2023-09-18T04:19:40;1.65;;;1.55;;
29906;SDS011;16776;50.958;10.994;2023-09-18T04:22:08;1.80;;;1.70;;
29906;SDS011;16776;50.958;10.994;2023-09-18T04:24:35;1.85;;;1.75;;
29906;SDS011;16776;50.958;10.994;2023-09-18T04:27:01;2.00;;;1.90;;
29906;SDS011;16776;50.958;10.994;2023-09-18T04:29:28;1.70;;;1.60;;
29906;SDS011;16776;50.958;10.994;2023-09-18T04:31:56;1.77;;;1.67;;
29906;SDS011;16776;50.958;10.994;2023-09-18T04:34:23;1.90;;;1.80;;
29906;SDS011;16776;50.958;10.994;2023-09-18T04:36:49;2.22;;;1.90;;
29906;SDS011;16776;50.958;10.994;2023-09-18T04:39:16;3.40;;;2.08;;
29906;SDS011;16776;50.958;10.994;2023-09-18T04:41:42;1.65;;;1.55;;
29906;SDS011;16776;50.958;10.994;2023-09-18T04:44:10;1.60;;;1.50;;
29906;SDS011;16776;50.958;10.994;2023-09-18T04:46:37;1.95;;;1.67;;
29906;SDS011;16776;50.958;10.994;2023-09-18T04:49:08;2.05;;;1.67;;
29906;SDS011;16776;50.958;10.994;2023-09-18T04:51:36;1.67;;;1.58;;
29906;SDS011;16776;50.958;10.994;2023-09-18T04:54:04;2.45;;;1.67;;
29906;SDS011;16776;50.958;10.994;2023-09-18T04:56:31;1.60;;;1.50;;
29906;SDS011;16776;50.958;10.994;2023-09-18T04:58:58;2.00;;;1.40;;
29906;SDS011;16776;50.958;10.994;2023-09-18T05:01:24;1.42;;;1.33;;
29906;SDS011;16776;50.958;10.994;2023-09-18T05:03:51;1.58;;;1.48;;
29906;SDS011;16776;50.958;10.994;2023-09-18T05:06:20;1.95;;;1.60;;
29906;SDS011;16776;50.958;10.994;2023-09-18T05:08:46;1.92;;;1.83;;
29906;SDS011;16776;50.958;10.994;2023-09-18T05:11:13;1.35;;;1.25;;
29906;SDS011;16776;50.958;10.994;2023-09-18T05:13:43;1.60;;;1.50;;
29906;SDS011;16776;50.958;10.994;2023-09-18T05:16:10;1.13;;;1.10;;
29906;SDS011;16776;50.958;10.994;2023-09-18T05:18:37;1.40;;;1.30;;
29906;SDS011;16776;50.958;10.994;2023-09-18T05:21:04;1.52;;;1.42;;
29906;SDS011;16776;50.958;10.994;2023-09-18T05:23:32;1.65;;;1.55;;
29906;SDS011;16776;50.958;10.994;2023-09-18T05:25:59;1.75;;;1.42;;
29906;SDS011;16776;50.958;10.994;2023-09-18T05:28:25;1.70;;;1.60;;
29906;SDS011;16776;50.958;10.994;2023-09-18T05:30:52;1.70;;;1.38;;
29906;SDS011;16776;50.958;10.994;2023-09-18T05:33:19;1.40;;;1.30;;
29906;SDS011;16776;50.958;10.994;2023-09-18T05:35:45;2.92;;;1.98;;
29906;SDS011;16776;50.958;10.994;2023-09-18T05:38:12;1.92;;;1.73;;
29906;SDS011;16776;50.958;10.994;2023-09-18T05:40:41;1.23;;;1.23;;
29906;SDS011;16776;50.958;10.994;2023-09-18T05:43:08;1.70;;;1.60;;
29906;SDS011;16776;50.958;10.994;2023-09-18T05:45:35;1.60;;;1.50;;
29906;SDS011;16776;50.958;10.994;2023-09-18T05:48:02;1.67;;;1.58;;
29906;SDS011;16776;50.958;10.994;2023-09-18T05:50:29;1.58;;;1.48;;
29906;SDS011;16776;50.958;10.994;2023-09-18T05:52:57;1.55;;;1.45;;
29906;SDS011;16776;50.958;10.994;2023-09-18T05:55:25;1.17;;;1.17;;
29906;SDS011;16776;50.958;10.994;2023-09-18T05:57:54;1.10;;;1.10;;
29906;SDS011;16776;50.958;10.994;2023-09-18T06:00:22;1.60;;;1.50;;
29906;SDS011;16776;50.958;10.994;2023-09-18T06:02:49;1.70;;;1.60;;
29906;SDS011;16776;50.958;10.994;2023-09-18T06:05:16;1.60;;;1.50;;
29906;SDS011;16776;50.958;10.994;2023-09-18T06:07:47;1.50;;;1.40;;
29906;SDS011;16776;50.958;10.994;2023-09-18T06:10:13;1.52;;;1.42;;
29906;SDS011;16776;50.958;10.994;2023-09-18T06:12:41;1.58;;;1.48;;
29906;SDS011;16776;50.958;10.994;2023-09-18T06:15:10;1.75;;;1.63;;
29906;SDS011;16776;50.958;10.994;2023-09-18T06:17:37;1.40;;;1.30;;
29906;SDS011;16776;50.958;10.994;2023-09-18T06:20:05;1.60;;;1.50;;
29906;SDS011;16776;50.958;10.994;2023-09-18T06:22:35;2.15;;;1.77;;
29906;SDS011;16776;50.958;10.994;2023-09-18T06:25:02;1.55;;;1.45;;
29906;SDS011;16776;50.958;10.994;2023-09-18T06:27:29;1.35;;;1.30;;
29906;SDS011;16776;50.958;10.994;2023-09-18T06:29:57;1.55;;;1.45;;
29906;SDS011;16776;50.958;10.994;2023-09-18T06:32:24;1.75;;;1.65;;
29906;SDS011;16776;50.958;10.994;2023-09-18T06:34:51;1.38;;;1.30;;
29906;SDS011;16776;50.958;10.994;2023-09-18T06:37:17;1.63;;;1.52;;
29906;SDS011;16776;50.958;10.994;2023-09-18T06:39:45;2.00;;;1.45;;
29906;SDS011;16776;50.958;10.994;2023-09-18T06:42:11;1.50;;;1.40;;
29906;SDS011;16776;50.958;10.994;2023-09-18T06:44:38;1.80;;;1.70;;
29906;SDS011;16776;50.958;10.994;2023-09-18T06:47:05;1.83;;;1.73;;
29906;SDS011;16776;50.958;10.994;2023-09-18T06:49:33;2.22;;;2.08;;
29906;SDS011;16776;50.958;10.994;2023-09-18T06:51:59;2.17;;;2.08;;
29906;SDS011;16776;50.958;10.994;2023-09-18T06:54:26;2.00;;;1.90;;
29906;SDS011;16776;50.958;10.994;2023-09-18T06:56:52;3.15;;;2.45;;
29906;SDS011;16776;50.958;10.994;2023-09-18T06:59:19;1.98;;;1.80;;
29906;SDS011;16776;50.958;10.994;2023-09-18T07:01:45;2.47;;;2.28;;
29906;SDS011;16776;50.958;10.994;2023-09-18T07:04:12;1.98;;;1.88;;
29906;SDS011;16776;50.958;10.994;2023-09-18T07:06:40;2.40;;;2.20;;
29906;SDS011;16776;50.958;10.994;2023-09-18T07:09:06;2.40;;;2.20;;
29906;SDS011;16776;50.958;10.994;2023-09-18T07:11:37;2.35;;;2.13;;
29906;SDS011;16776;50.958;10.994;2023-09-18T07:14:03;1.52;;;1.42;;
29906;SDS011;16776;50.958;10.994;2023-09-18T07:16:31;2.00;;;1.75;;
29906;SDS011;16776;50.958;10.994;2023-09-18T07:18:58;2.53;;;1.48;;
29906;SDS011;16776;50.958;10.994;2023-09-18T07:21:24;2.35;;;2.15;;
29906;SDS011;16776;50.958;10.994;2023-09-18T07:23:52;2.45;;;1.80;;
29906;SDS011;16776;50.958;10.994;2023-09-18T07:26:18;2.25;;;2.00;;
29906;SDS011;16776;50.958;10.994;2023-09-18T07:28:45;2.42;;;2.22;;
29906;SDS011;16776;50.958;10.994;2023-09-18T07:31:12;2.10;;;1.90;;
29906;SDS011;16776;50.958;10.994;2023-09-18T07:33:39;2.53;;;1.88;;
29906;SDS011;16776;50.958;10.994;2023-09-18T07:36:06;1.92;;;1.60;;
29906;SDS011;16776;50.958;10.994;2023-09-18T07:38:34;2.00;;;1.50;;
29906;SDS011;16776;50.958;10.994;2023-09-18T07:41:02;1.83;;;1.50;;
29906;SDS011;16776;50.958;10.994;2023-09-18T07:43:29;1.88;;;1.58;;
29906;SDS011;16776;50.958;10.994;2023-09-18T07:45:56;1.92;;;1.80;;
29906;SDS011;16776;50.958;10.994;2023-09-18T07:48:24;2.22;;;1.55;;
29906;SDS011;16776;50.958;10.994;2023-09-18T07:50:51;1.80;;;1.70;;
29906;SDS011;16776;50.958;10.994;2023-09-18T07:53:19;1.27;;;1.20;;
29906;SDS011;16776;50.958;10.994;2023-09-18T07:55:47;2.15;;;1.83;;
29906;SDS011;16776;50.958;10.994;2023-09-18T07:58:15;1.58;;;1.48;;
29906;SDS011;16776;50.958;10.994;2023-09-18T08:00:42;2.63;;;1.98;;
29906;SDS011;16776;50.958;10.994;2023-09-18T08:03:09;1.50;;;1.40;;
29906;SDS011;16776;50.958;10.994;2023-09-18T08:05:35;2.22;;;1.40;;
29906;SDS011;16776;50.958;10.994;2023-09-18T08:08:02;1.70;;;1.33;;
29906;SDS011;16776;50.958;10.994;2023-09-18T08:10:30;1.60;;;1.40;;
29906;SDS011;16776;50.958;10.994;2023-09-18T08:12:57;3.17;;;1.35;;
29906;SDS011;16776;50.958;10.994;2023-09-18T08:15:25;1.40;;;1.30;;
29906;SDS011;16776;50.958;10.994;2023-09-18T08:17:52;2.60;;;1.38;;
29906;SDS011;16776;50.958;10.994;2023-09-18T08:20:18;1.95;;;1.52;;
29906;SDS011;16776;50.958;10.994;2023-09-18T08:22:45;1.45;;;1.30;;
29906;SDS011;16776;50.958;10.994;2023-09-18T08:25:13;1.45;;;1.15;;
29906;SDS011;16776;50.958;10.994;2023-09-18T08:27:39;2.20;;;1.10;;
29906;SDS011;16776;50.958;10.994;2023-09-18T08:30:09;2.33;;;1.80;;
29906;SDS011;16776;50.958;10.994;2023-09-18T08:32:37;1.45;;;1.33;;
29906;SDS011;16776;50.958;10.994;2023-09-18T08:35:05;2.28;;;1.45;;
29906;SDS011;16776;50.958;10.994;2023-09-18T08:37:33;2.83;;;1.65;;
29906;SDS011;16776;50.958;10.994;2023-09-18T08:39:59;1.67;;;1.33;;
29906;SDS011;16776;50.958;10.994;2023-09-18T08:42:34;1.80;;;1.33;;
29906;SDS011;16776;50.958;10.994;2023-09-18T08:45:02;1.52;;;1.30;;
29906;SDS011;16776;50.958;10.994;2023-09-18T08:47:34;3.60;;;1.93;;
29906;SDS011;16776;50.958;10.994;2023-09-18T08:50:03;5.05;;;1.85;;
29906;SDS011;16776;50.958;10.994;2023-09-18T08:52:30;5.38;;;1.88;;
29906;SDS011;16776;50.958;10.994;2023-09-18T08:54:57;3.03;;;1.45;;
29906;SDS011;16776;50.958;10.994;2023-09-18T08:57:24;2.65;;;1.48;;
29906;SDS011;16776;50.958;10.994;2023-09-18T08:59:52;1.70;;;1.00;;
29906;SDS011;16776;50.958;10.994;2023-09-18T09:02:22;1.58;;;1.23;;
29906;SDS011;16776;50.958;10.994;2023-09-18T09:04:52;2.38;;;1.48;;
29906;SDS011;16776;50.958;10.994;2023-09-18T09:07:20;1.75;;;1.17;;
29906;SDS011;16776;50.958;10.994;2023-09-18T09:09:46;2.10;;;1.25;;
29906;SDS011;16776;50.958;10.994;2023-09-18T09:12:13;1.67;;;1.05;;
29906;SDS011;16776;50.958;10.994;2023-09-18T09:14:40;1.52;;;1.25;;
29906;SDS011;16776;50.958;10.994;2023-09-18T09:17:07;2.97;;;1.38;;
29906;SDS011;16776;50.958;10.994;2023-09-18T09:19:35;1.20;;;1.08;;
29906;SDS011;16776;50.958;10.994;2023-09-18T09:22:07;2.37;;;1.47;;
29906;SDS011;16776;50.958;10.994;2023-09-18T09:24:39;2.40;;;1.13;;
29906;SDS011;16776;50.958;10.994;2023-09-18T09:29:33;2.17;;;0.95;;
29906;SDS011;16776;50.958;10.994;2023-09-18T09:32:11;1.65;;;1.17;;
29906;SDS011;16776;50.958;10.994;2023-09-18T09:34:40;1.52;;;1.02;;
29906;SDS011;16776;50.958;10.994;2023-09-18T09:37:08;1.17;;;0.95;;
29906;SDS011;16776;50.958;10.994;2023-09-18T09:39:34;1.65;;;1.30;;
29906;SDS011;16776;50.958;10.994;2023-09-18T09:42:03;2.50;;;1.40;;
29906;SDS011;16776;50.958;10.994;2023-09-18T09:44:31;4.00;;;1.00;;
29906;SDS011;16776;50.958;10.994;2023-09-18T09:46:58;3.90;;;1.40;;
29906;SDS011;16776;50.958;10.994;2023-09-18T09:49:25;1.90;;;1.08;;
29906;SDS011;16776;50.958;10.994;2023-09-18T09:51:53;2.30;;;1.58;;
29906;SDS011;16776;50.958;10.994;2023-09-18T09:54:24;1.88;;;1.00;;
29906;SDS011;16776;50.958;10.994;2023-09-18T09:56:59;5.47;;;1.65;;
29906;SDS011;16776;50.958;10.994;2023-09-18T09:59:30;3.13;;;1.50;;
29906;SDS011;16776;50.958;10.994;2023-09-18T10:01:58;2.05;;;1.10;;
29906;SDS011;16776;50.958;10.994;2023-09-18T10:04:25;1.70;;;0.98;;
29906;SDS011;16776;50.958;10.994;2023-09-18T10:06:56;4.78;;;1.48;;
29906;SDS011;16776;50.958;10.994;2023-09-18T10:09:25;3.75;;;1.05;;
29906;SDS011;16776;50.958;10.994;2023-09-18T10:11:54;4.03;;;1.48;;
29906;SDS011;16776;50.958;10.994;2023-09-18T10:14:26;5.03;;;1.05;;
29906;SDS011;16776;50.958;10.994;2023-09-18T10:16:59;2.22;;;1.10;;
29906;SDS011;16776;50.958;10.994;2023-09-18T10:19:34;2.05;;;0.90;;
29906;SDS011;16776;50.958;10.994;2023-09-18T10:22:10;2.53;;;1.15;;
29906;SDS011;16776;50.958;10.994;2023-09-18T10:24:47;2.63;;;1.15;;
29906;SDS011;16776;50.958;10.994;2023-09-18T10:27:26;4.32;;;1.20;;
29906;SDS011;16776;50.958;10.994;2023-09-18T10:29:55;5.82;;;1.55;;
29906;SDS011;16776;50.958;10.994;2023-09-18T10:32:22;1.27;;;1.15;;
29906;SDS011;16776;50.958;10.994;2023-09-18T10:34:53;2.03;;;1.40;;
29906;SDS011;16776;50.958;10.994;2023-09-18T10:37:20;2.75;;;1.73;;
29906;SDS011;16776;50.958;10.994;2023-09-18T10:39:48;3.20;;;1.38;;
29906;SDS011;16776;50.958;10.994;2023-09-18T10:42:17;2.90;;;1.23;;
29906;SDS011;16776;50.958;10.994;2023-09-18T10:44:47;1.65;;;1.20;;
29906;SDS011;16776;50.958;10.994;2023-09-18T10:47:16;1.95;;;1.30;;
29906;SDS011;16776;50.958;10.994;2023-09-18T10:49:45;3.63;;;1.52;;
29906;SDS011;16776;50.958;10.994;2023-09-18T10:52:11;3.53;;;1.63;;
29906;SDS011;16776;50.958;10.994;2023-09-18T10:54:39;0.85;;;0.82;;
29906;SDS011;16776;50.958;10.994;2023-09-18T10:57:05;2.55;;;1.42;;
29906;SDS011;16776;50.958;10.994;2023-09-18T10:59:32;3.13;;;0.90;;
29906;SDS011;16776;50.958;10.994;2023-09-18T11:02:02;1.95;;;0.90;;
29906;SDS011;16776;50.958;10.994;2023-09-18T11:04:31;1.40;;;0.98;;
29906;SDS011;16776;50.958;10.994;2023-09-18T11:07:01;2.00;;;0.82;;
29906;SDS011;16776;50.958;10.994;2023-09-18T11:09:30;1.40;;;0.98;;
29906;SDS011;16776;50.958;10.994;2023-09-18T11:12:07;1.90;;;0.82;;
29906;SDS011;16776;50.958;10.994;2023-09-18T11:14:46;2.05;;;1.10;;
29906;SDS011;16776;50.958;10.994;2023-09-18T11:17:28;3.22;;;1.48;;
29906;SDS011;16776;50.958;10.994;2023-09-18T11:20:07;1.33;;;1.00;;
29906;SDS011;16776;50.958;10.994;2023-09-18T11:22:37;0.80;;;0.80;;
29906;SDS011;16776;50.958;10.994;2023-09-18T11:27:55;2.67;;;1.05;;
29906;SDS011;16776;50.958;10.994;2023-09-18T11:30:22;1.17;;;0.90;;
29906;SDS011;16776;50.958;10.994;2023-09-18T11:32:49;0.98;;;0.65;;
29906;SDS011;16776;50.958;10.994;2023-09-18T11:35:17;0.88;;;0.88;;
29906;SDS011;16776;50.958;10.994;2023-09-18T11:37:44;1.30;;;0.60;;
29906;SDS011;16776;50.958;10.994;2023-09-18T11:45:55;3.92;;;0.85;;
29906;SDS011;16776;50.958;10.994;2023-09-18T11:48:22;1.33;;;0.73;;
29906;SDS011;16776;50.958;10.994;2023-09-18T11:50:54;1.27;;;1.08;;
29906;SDS011;16776;50.958;10.994;2023-09-18T11:53:26;1.25;;;0.80;;
29906;SDS011;16776;50.958;10.994;2023-09-18T11:55:54;2.35;;;0.90;;
29906;SDS011;16776;50.958;10.994;2023-09-18T11:58:20;0.93;;;0.90;;
29906;SDS011;16776;50.958;10.994;2023-09-18T12:00:48;1.75;;;0.85;;
29906;SDS011;16776;50.958;10.994;2023-09-18T12:03:16;1.52;;;0.80;;
29906;SDS011;16776;50.958;10.994;2023-09-18T12:05:50;2.42;;;1.02;;
29906;SDS011;16776;50.958;10.994;2023-09-18T12:08:19;1.58;;;0.75;;
29906;SDS011;16776;50.958;10.994;2023-09-18T12:10:48;1.33;;;1.23;;
29906;SDS011;16776;50.958;10.994;2023-09-18T12:13:17;1.60;;;0.90;;
29906;SDS011;16776;50.958;10.994;2023-09-18T12:15:44;1.25;;;0.90;;
29906;SDS011;16776;50.958;10.994;2023-09-18T12:18:10;1.05;;;0.90;;
29906;SDS011;16776;50.958;10.994;2023-09-18T12:20:44;0.90;;;0.90;;
29906;SDS011;16776;50.958;10.994;2023-09-18T12:23:11;1.40;;;0.70;;
29906;SDS011;16776;50.958;10.994;2023-09-18T12:25:39;0.75;;;0.75;;
29906;SDS011;16776;50.958;10.994;2023-09-18T12:28:06;1.00;;;0.70;;
29906;SDS011;16776;50.958;10.994;2023-09-18T12:30:33;1.77;;;0.80;;
29906;SDS011;16776;50.958;10.994;2023-09-18T12:33:02;1.15;;;0.80;;
29906;SDS011;16776;50.958;10.994;2023-09-18T12:35:29;2.53;;;1.00;;
29906;SDS011;16776;50.958;10.994;2023-09-18T12:37:57;2.15;;;1.05;;
29906;SDS011;16776;50.958;10.994;2023-09-18T12:40:25;2.10;;;0.70;;
29906;SDS011;16776;50.958;10.994;2023-09-18T12:42:56;1.77;;;1.00;;
29906;SDS011;16776;50.958;10.994;2023-09-18T12:45:24;1.05;;;0.70;;
29906;SDS011;16776;50.958;10.994;2023-09-18T12:47:53;1.23;;;0.60;;
29906;SDS011;16776;50.958;10.994;2023-09-18T12:50:21;1.60;;;0.82;;
29906;SDS011;16776;50.958;10.994;2023-09-18T12:52:47;0.85;;;0.52;;
29906;SDS011;16776;50.958;10.994;2023-09-18T12:55:20;0.80;;;0.57;;
29906;SDS011;16776;50.958;10.994;2023-09-18T12:57:50;0.88;;;0.80;;
29906;SDS011;16776;50.958;10.994;2023-09-18T13:00:19;0.82;;;0.70;;
29906;SDS011;16776;50.958;10.994;2023-09-18T13:02:47;0.80;;;0.60;;
29906;SDS011;16776;50.958;10.994;2023-09-18T13:05:19;0.63;;;0.63;;
29906;SDS011;16776;50.958;10.994;2023-09-18T13:07:46;0.38;;;0.30;;
29906;SDS011;16776;50.958;10.994;2023-09-18T13:10:13;1.73;;;0.70;;
29906;SDS011;16776;50.958;10.994;2023-09-18T13:12:41;1.05;;;0.93;;
29906;SDS011;16776;50.958;10.994;2023-09-18T13:15:09;1.58;;;0.57;;
29906;SDS011;16776;50.958;10.994;2023-09-18T13:17:42;0.70;;;0.65;;
29906;SDS011;16776;50.958;10.994;2023-09-18T13:20:11;0.68;;;0.68;;
29906;SDS011;16776;50.958;10.994;2023-09-18T13:22:40;0.50;;;0.50;;
29906;SDS011;16776;50.958;10.994;2023-09-18T13:25:08;1.02;;;0.60;;
29906;SDS011;16776;50.958;10.994;2023-09-18T13:27:35;1.40;;;0.73;;
29906;SDS011;16776;50.958;10.994;2023-09-18T13:30:03;0.88;;;0.73;;
29906;SDS011;16776;50.958;10.994;2023-09-18T13:32:33;1.63;;;1.10;;
29906;SDS011;16776;50.958;10.994;2023-09-18T13:35:03;1.23;;;0.60;;
29906;SDS011;16776;50.958;10.994;2023-09-18T13:37:31;0.70;;;0.70;;
29906;SDS011;16776;50.958;10.994;2023-09-18T13:39:58;1.85;;;0.55;;
29906;SDS011;16776;50.958;10.994;2023-09-18T13:42:27;1.17;;;0.50;;
29906;SDS011;16776;50.958;10.994;2023-09-18T13:44:55;0.50;;;0.50;;
29906;SDS011;16776;50.958;10.994;2023-09-18T13:47:22;1.10;;;0.40;;
29906;SDS011;16776;50.958;10.994;2023-09-18T13:49:48;0.47;;;0.47;;
29906;SDS011;16776;50.958;10.994;2023-09-18T13:52:17;0.75;;;0.40;;
29906;SDS011;16776;50.958;10.994;2023-09-18T13:54:45;0.73;;;0.50;;
29906;SDS011;16776;50.958;10.994;2023-09-18T13:57:16;1.50;;;0.60;;
29906;SDS011;16776;50.958;10.994;2023-09-18T13:59:43;0.30;;;0.30;;
29906;SDS011;16776;50.958;10.994;2023-09-18T14:02:10;0.80;;;0.70;;
29906;SDS011;16776;50.958;10.994;2023-09-18T14:04:37;0.98;;;0.45;;
29906;SDS011;16776;50.958;10.994;2023-09-18T14:07:04;0.50;;;0.50;;
29906;SDS011;16776;50.958;10.994;2023-09-18T14:09:35;1.23;;;0.50;;
29906;SDS011;16776;50.958;10.994;2023-09-18T14:12:01;1.25;;;0.50;;
29906;SDS011;16776;50.958;10.994;2023-09-18T14:14:29;1.77;;;0.60;;
29906;SDS011;16776;50.958;10.994;2023-09-18T14:16:57;0.70;;;0.60;;
29906;SDS011;16776;50.958;10.994;2023-09-18T14:19:24;0.50;;;0.40;;
29906;SDS011;16776;50.958;10.994;2023-09-18T14:21:51;0.60;;;0.60;;
29906;SDS011;16776;50.958;10.994;2023-09-18T14:24:18;1.02;;;0.50;;
29906;SDS011;16776;50.958;10.994;2023-09-18T14:26:50;1.55;;;0.57;;
29906;SDS011;16776;50.958;10.994;2023-09-18T14:29:17;3.70;;;0.73;;
29906;SDS011;16776;50.958;10.994;2023-09-18T14:31:44;2.58;;;0.57;;
29906;SDS011;16776;50.958;10.994;2023-09-18T14:34:11;1.38;;;0.57;;
29906;SDS011;16776;50.958;10.994;2023-09-18T14:36:37;0.52;;;0.50;;
29906;SDS011;16776;50.958;10.994;2023-09-18T14:39:05;0.50;;;0.50;;
29906;SDS011;16776;50.958;10.994;2023-09-18T14:41:33;1.02;;;0.50;;
29906;SDS011;16776;50.958;10.994;2023-09-18T14:44:01;1.42;;;0.50;;
29906;SDS011;16776;50.958;10.994;2023-09-18T14:46:29;1.60;;;0.57;;
29906;SDS011;16776;50.958;10.994;2023-09-18T14:48:58;2.17;;;0.93;;